Terminal Aerodrome Forecast
Issued by NWS Jacksonville, FL

Home | Current Version | Previous Version | Text Only | Print | Product List | Glossary On
Versions: 1 2 3 4 5 6 7 8 9 10 11 12 13 14 15 16 17 18 19 20 21 22 23 24 25 26 27
490
FTUS42 KJAX 062340
TAFGNV
TAF
KGNV 062340Z 0700/0724 36010KT 5SM -RA BR BKN015 OVC020
     FM070600 34015G23KT P6SM VCSH OVC020
     FM071200 34013KT P6SM SCT020 BKN040
     FM071500 32014G21KT P6SM FEW030=

USA.gov is the U.S. government's official web portal to all federal, state and local government web resources and services.